Time;durP1;ratioP1;P1;durP2;ratioP2;P2;SDS_P1;SDS_P2;PMS_P1;PMS_P2;Temp;Humidity;BMP_temperature;BMP_pressure;BME280_temperature;BME280_humidity;BME280_pressure;Samples;Min_cycle;Max_cycle;Signal;HPM_P1;HPM_P2
2021/09/29 00:00:55;;;;;;;6.43;5.50;;;;;;;;;;5039290;28;20428;-91
2021/09/29 00:03:22;;;;;;;6.23;5.20;;;;;;;;;;5035562;28;20443;-89
2021/09/29 00:05:50;;;;;;;6.20;5.37;;;;;;;;;;5039759;28;20479;-91
2021/09/29 00:08:17;;;;;;;8.20;6.00;;;;;;;;;;5039097;28;20428;-90
2021/09/29 00:10:44;;;;;;;6.73;6.00;;;;;;;;;;5040573;28;20446;-90
2021/09/29 00:13:12;;;;;;;9.60;5.60;;;13.10;99.90;;;;;;5039053;28;20955;-89
2021/09/29 00:15:40;;;;;;;6.20;5.20;;;;;;;;;;5037002;28;20443;-88
2021/09/29 00:18:08;;;;;;;7.40;6.70;;;;;;;;;;5048359;28;20471;-90
2021/09/29 00:20:35;;;;;;;9.03;6.10;;;;;;;;;;5055486;28;20473;-89
2021/09/29 00:23:02;;;;;;;8.77;6.23;;;;;;;;;;5058183;28;20995;-92
2021/09/29 00:25:29;;;;;;;7.17;5.30;;;;;;;;;;5059716;28;20482;-90
2021/09/29 00:27:56;;;;;;;7.70;5.83;;;;;;;;;;5056741;28;20508;-89
2021/09/29 00:30:23;;;;;;;6.37;5.77;;;;;;;;;;5056727;28;20462;-90
2021/09/29 00:32:52;;;;;;;7.50;5.73;;;;;;;;;;5055614;28;20478;-90
2021/09/29 00:35:20;;;;;;;7.33;6.60;;;;;;;;;;5057058;28;20450;-89
2021/09/29 00:37:47;;;;;;;7.10;5.83;;;;;;;;;;5056220;28;20485;-90
2021/09/29 00:40:14;;;;;;;8.40;5.70;;;;;;;;;;5061815;28;20526;-92
2021/09/29 00:42:43;;;;;;;9.47;5.23;;;13.00;99.90;;;;;;5060955;28;20442;-90
2021/09/29 00:45:11;;;;;;;6.47;5.67;;;;;;;;;;5060532;28;20493;-90
2021/09/29 00:47:38;;;;;;;9.00;5.30;;;;;;;;;;5059934;28;20934;-91
2021/09/29 00:50:08;;;;;;;6.40;5.20;;;;;;;;;;5057207;28;20454;-92
2021/09/29 00:52:36;;;;;;;9.67;5.60;;;;;;;;;;5059748;28;20438;-92
2021/09/29 00:55:03;;;;;;;6.60;5.60;;;;;;;;;;5059724;28;20461;-89
2021/09/29 00:57:30;;;;;;;6.10;5.50;;;;;;;;;;5060147;28;20443;-89
2021/09/29 00:59:57;;;;;;;8.77;5.13;;;;;;;;;;5061567;28;20453;-89
2021/09/29 01:02:25;;;;;;;5.67;5.07;;;;;;;;;;5068906;28;20456;-89
2021/09/29 01:04:52;;;;;;;7.70;5.87;;;;;;;;;;5072277;23;20489;-89
2021/09/29 01:07:25;;;;;;;6.17;5.33;;;12.70;99.90;;;;;;5078813;28;20454;-89
2021/09/29 01:10:03;;;;;;;6.23;5.60;;;12.70;99.90;;;;;;5081950;28;20434;-86
2021/09/29 01:12:36;;;;;;;6.90;6.00;;;12.70;99.90;;;;;;5079439;28;20450;-88
2021/09/29 01:15:08;;;;;;;7.87;6.17;;;12.70;99.90;;;;;;5076016;28;20453;-89
2021/09/29 01:17:39;;;;;;;12.20;6.20;;;12.60;99.90;;;;;;5079361;28;20840;-88
2021/09/29 01:20:12;;;;;;;6.67;5.90;;;12.70;99.90;;;;;;5077750;28;20459;-89
2021/09/29 01:23:06;;;;;;;8.90;5.90;;;12.70;99.90;;;;;;5078774;28;20460;-87
2021/09/29 01:25:41;;;;;;;9.00;6.50;;;12.80;99.90;;;;;;5077027;28;20496;-90
2021/09/29 01:28:10;;;;;;;9.50;6.27;;;12.80;99.90;;;;;;5077787;28;20541;-88
2021/09/29 01:30:38;;;;;;;8.03;6.60;;;12.90;99.90;;;;;;5077664;28;20450;-88
2021/09/29 01:33:06;;;;;;;12.90;5.97;;;13.00;99.90;;;;;;5078026;28;20453;-90
2021/09/29 01:35:33;;;;;;;7.80;5.43;;;;;;;;;;5077398;28;20452;-88
2021/09/29 01:38:00;;;;;;;6.27;5.43;;;;;;;;;;5078439;28;21168;-89
2021/09/29 01:40:28;;;;;;;7.03;5.57;;;;;;;;;;5078324;28;20952;-89
2021/09/29 01:42:55;;;;;;;7.13;6.43;;;;;;;;;;5077888;28;20457;-89
2021/09/29 01:45:24;;;;;;;6.90;6.20;;;;;;;;;;5075337;28;20848;-88
2021/09/29 01:47:51;;;;;;;8.60;6.43;;;;;;;;;;5075353;28;20441;-89
2021/09/29 01:50:21;;;;;;;8.67;6.23;;;;;;;;;;5077351;28;20442;-89
2021/09/29 01:52:50;;;;;;;8.00;6.47;;;;;;;;;;5078560;28;20941;-90
2021/09/29 01:55:18;;;;;;;6.70;5.53;;;;;;;;;;5077350;28;20448;-88
2021/09/29 01:57:47;;;;;;;7.03;5.80;;;12.50;99.90;;;;;;5076643;28;20548;-90
2021/09/29 02:00:15;;;;;;;7.07;6.37;;;12.40;99.90;;;;;;5077587;28;20452;-88
2021/09/29 02:02:45;;;;;;;6.73;5.47;;;12.40;99.90;;;;;;5080057;28;20442;-90
2021/09/29 02:05:15;;;;;;;8.53;6.07;;;12.40;99.90;;;;;;5080163;28;20473;-89
2021/09/29 02:07:42;;;;;;;8.97;5.10;;;;;;;;;;5080212;28;20483;-89
2021/09/29 02:10:10;;;;;;;7.33;5.50;;;;;;;;;;5080998;28;20816;-88
2021/09/29 02:12:37;;;;;;;12.73;5.70;;;;;;;;;;5080610;28;20449;-89
2021/09/29 02:15:05;;;;;;;7.77;6.00;;;;;;;;;;5081623;28;20810;-90
2021/09/29 02:17:32;;;;;;;13.20;5.73;;;;;;;;;;5081345;28;20461;-88
2021/09/29 02:20:01;;;;;;;5.17;4.50;;;;;;;;;;5081016;28;20469;-88
2021/09/29 02:22:28;;;;;;;9.53;5.83;;;;;;;;;;5081168;28;20457;-88
2021/09/29 02:24:55;;;;;;;7.07;5.40;;;;;;;;;;5082532;28;20446;-90
2021/09/29 02:27:22;;;;;;;6.60;5.77;;;;;;;;;;5086765;28;20489;-90
2021/09/29 02:29:49;;;;;;;5.93;5.30;;;;;;;;;;5061833;28;20458;-88
2021/09/29 02:32:16;;;;;;;10.87;5.60;;;12.30;99.90;;;;;;5082196;23;20478;-89
2021/09/29 02:34:44;;;;;;;7.80;5.60;;;;;;;;;;5090263;28;20441;-89
2021/09/29 02:37:12;;;;;;;6.90;5.20;;;12.20;99.90;;;;;;5087857;28;20457;-90
2021/09/29 02:39:40;;;;;;;7.20;5.07;;;;;;;;;;5086053;22;20961;-90
2021/09/29 02:42:07;;;;;;;7.60;5.77;;;;;;;;;;5063534;28;20450;-91
2021/09/29 02:44:35;;;;;;;6.83;6.13;;;;;;;;;;5067290;28;20443;-90
2021/09/29 02:47:02;;;;;;;6.63;5.30;;;;;;;;;;5067280;28;20478;-89
2021/09/29 02:49:29;;;;;;;8.27;6.27;;;;;;;;;;5065450;28;20455;-90
2021/09/29 02:51:56;;;;;;;8.10;6.40;;;;;;;;;;5067693;28;20800;-90
2021/09/29 02:54:25;;;;;;;11.60;6.57;;;;;;;;;;5066626;28;20439;-90
2021/09/29 02:56:52;;;;;;;6.33;5.53;;;;;;;;;;5066232;28;20442;-90
2021/09/29 02:59:19;;;;;;;8.37;6.00;;;;;;;;;;5065375;28;20942;-90
2021/09/29 03:01:46;;;;;;;8.87;6.10;;;;;;;;;;5062745;28;20461;-90
2021/09/29 03:04:13;;;;;;;7.23;6.03;;;;;;;;;;5063579;28;20461;-89
2021/09/29 03:06:40;;;;;;;8.03;5.70;;;;;;;;;;5061137;28;20470;-90
2021/09/29 03:09:11;;;;;;;11.03;6.30;;;;;;;;;;5068947;22;20455;-90
2021/09/29 03:11:39;;;;;;;6.77;4.97;;;11.60;99.90;;;;;;5067332;28;20457;-90
2021/09/29 03:14:06;;;;;;;10.30;6.60;;;;;;;;;;5063572;28;20450;-90
2021/09/29 03:16:33;;;;;;;8.60;6.27;;;;;;;;;;5073861;28;20466;-91
2021/09/29 03:19:02;;;;;;;12.90;6.67;;;;;;;;;;5087396;28;20431;-89
2021/09/29 03:21:30;;;;;;;6.40;5.80;;;;;;;;;;5087526;28;20438;-89
2021/09/29 03:23:57;;;;;;;10.90;6.27;;;;;;;;;;5085640;28;20449;-89
2021/09/29 03:26:24;;;;;;;10.80;4.97;;;;;;;;;;5083465;28;20457;-90
2021/09/29 03:28:52;;;;;;;9.20;6.80;;;11.70;99.90;;;;;;5085337;28;20445;-88
2021/09/29 03:31:20;;;;;;;5.20;4.57;;;;;;;;;;5083120;28;20461;-89
2021/09/29 03:36:12;;;;;;;8.20;6.17;;;;;;;;;;5066408;22;20485;-90
2021/09/29 03:38:40;;;;;;;7.03;6.33;;;;;;;;;;5070207;22;20232;-89
2021/09/29 03:41:07;;;;;;;11.40;6.97;;;;;;;;;;5065454;28;20447;-88
2021/09/29 03:43:34;;;;;;;10.07;6.70;;;;;;;;;;5066205;28;20461;-90
2021/09/29 03:46:02;;;;;;;8.67;5.63;;;11.80;99.90;;;;;;5065913;28;20487;-89
2021/09/29 03:48:29;;;;;;;9.43;5.73;;;;;;;;;;5069158;22;20494;-89
2021/09/29 03:50:56;;;;;;;5.80;5.30;;;;;;;;;;5064868;28;20457;-90
2021/09/29 03:53:23;;;;;;;8.40;6.70;;;;;;;;;;5064433;28;20455;-90
2021/09/29 03:55:51;;;;;;;9.10;6.00;;;;;;;;;;5063890;28;20458;-90
2021/09/29 03:58:19;;;;;;;7.27;6.17;;;;;;;;;;5063433;28;20450;-90
2021/09/29 04:00:46;;;;;;;8.80;6.37;;;;;;;;;;5064698;28;20482;-89
2021/09/29 04:03:15;;;;;;;10.03;6.03;;;12.10;99.90;;;;;;5071193;28;20443;-90
2021/09/29 04:05:42;;;;;;;7.83;5.97;;;;;;;;;;5065176;28;20443;-88
2021/09/29 04:08:10;;;;;;;6.63;5.97;;;;;;;;;;5062827;28;20461;-90
2021/09/29 04:10:37;;;;;;;5.97;5.37;;;;;;;;;;5060954;28;20455;-89
2021/09/29 04:13:06;;;;;;;7.60;5.33;;;;;;;;;;5063443;28;20454;-90
2021/09/29 04:15:34;;;;;;;5.70;4.40;;;;;;;;;;5071487;22;20491;-89
2021/09/29 04:18:01;;;;;;;5.03;4.50;;;;;;;;;;5081503;28;20441;-90
2021/09/29 04:20:30;;;;;;;7.13;5.27;;;;;;;;;;5080255;28;20460;-89
2021/09/29 04:22:57;;;;;;;5.70;5.13;;;;;;;;;;5080033;28;20429;-90
2021/09/29 04:25:24;;;;;;;5.67;4.47;;;;;;;;;;5081978;28;20446;-89
2021/09/29 04:27:51;;;;;;;7.50;4.70;;;;;;;;;;5084873;28;20497;-89
2021/09/29 04:33:23;;;;;;;6.17;5.30;;;12.20;99.90;;;;;;5220065;23;20552;-90
2021/09/29 04:36:00;;;;;;;9.73;5.17;;;;;;;;;;4993838;23;20486;-92
2021/09/29 04:38:34;;;;;;;4.17;3.77;;;;;;;;;;5053670;28;20499;-88
2021/09/29 04:41:01;;;;;;;5.83;5.10;;;;;;;;;;5052154;28;20455;-93
2021/09/29 04:43:31;;;;;;;6.43;4.93;;;;;;;;;;5043486;28;20503;-88
2021/09/29 04:46:02;;;;;;;4.53;4.13;;;;;;;;;;5042012;23;20564;-88
2021/09/29 04:48:29;;;;;;;5.40;4.13;;;;;;;;;;5011829;28;20493;-91
2021/09/29 04:51:03;;;;;;;10.07;5.07;;;12.10;99.90;;;;;;5005463;28;20456;-88
2021/09/29 04:53:30;;;;;;;4.83;4.23;;;;;;;;;;5018251;28;20441;-91
2021/09/29 04:56:00;;;;;;;9.13;4.23;;;;;;;;;;5040454;23;20487;-89
2021/09/29 04:58:28;;;;;;;5.20;4.30;;;;;;;;;;5023263;28;20436;-89
2021/09/29 05:00:55;;;;;;;5.97;4.73;;;;;;;;;;5039467;28;20939;-90
2021/09/29 05:03:24;;;;;;;7.03;4.20;;;12.10;99.90;;;;;;5072814;23;20489;-90
2021/09/29 05:05:51;;;;;;;4.80;3.70;;;;;;;;;;5027011;23;20865;-89
2021/09/29 05:08:24;;;;;;;6.93;4.60;;;12.10;99.90;;;;;;4998917;28;20489;-89
2021/09/29 05:10:56;;;;;;;7.10;4.77;;;12.10;99.90;;;;;;4998397;28;20460;-89
2021/09/29 05:13:27;;;;;;;7.30;4.17;;;12.00;99.90;;;;;;5000579;28;21033;-89
2021/09/29 05:15:57;;;;;;;6.40;4.40;;;;;;;;;;5011316;23;20989;-88
2021/09/29 05:18:25;;;;;;;5.53;4.60;;;;;;;;;;5004975;28;20477;-88
2021/09/29 05:20:56;;;;;;;5.53;3.70;;;12.00;99.90;;;;;;5010991;23;21026;-90
2021/09/29 05:23:25;;;;;;;5.17;4.60;;;;;;;;;;5004565;28;20437;-89
2021/09/29 05:25:52;;;;;;;4.67;4.20;;;;;;;;;;5000332;28;20957;-89
2021/09/29 05:28:23;;;;;;;10.57;4.47;;;11.90;99.90;;;;;;5004997;28;20492;-92
2021/09/29 05:30:51;;;;;;;8.67;4.50;;;;;;;;;;5009642;28;20442;-89
2021/09/29 05:33:20;;;;;;;2.30;1.37;;;;;;;;;;5014074;28;20440;-91
2021/09/29 05:38:37;;;;;;;7.60;4.37;;;;;;;;;;5136223;23;20491;-91
2021/09/29 05:41:04;;;;;;;8.27;5.67;;;;;;;;;;5049163;28;20432;-90
2021/09/29 05:43:31;;;;;;;7.50;4.33;;;;;;;;;;5023629;28;20816;-93
2021/09/29 05:45:59;;;;;;;6.30;4.40;;;;;;;;;;5024783;28;20463;-91
2021/09/29 05:48:26;;;;;;;6.90;4.30;;;;;;;;;;5018486;28;20488;-93
2021/09/29 05:50:53;;;;;;;12.60;5.33;;;;;;;;;;5024031;28;20455;-92
2021/09/29 05:53:20;;;;;;;6.70;4.70;;;;;;;;;;5039306;28;20451;-91
2021/09/29 05:55:48;;;;;;;6.13;4.40;;;11.90;99.90;;;;;;5038154;28;20455;-91
2021/09/29 05:58:15;;;;;;;4.57;3.87;;;;;;;;;;5033518;28;20485;-94
2021/09/29 06:00:43;;;;;;;4.97;3.77;;;;;;;;;;5037698;28;20439;-92
2021/09/29 06:03:10;;;;;;;8.27;4.03;;;;;;;;;;5034126;28;20436;-93
2021/09/29 06:05:37;;;;;;;5.87;3.77;;;;;;;;;;5038715;28;20432;-92
2021/09/29 06:08:04;;;;;;;4.83;3.43;;;;;;;;;;5035592;28;20487;-91
2021/09/29 06:10:32;;;;;;;3.90;3.50;;;;;;;;;;5039369;28;20447;-94
2021/09/29 06:13:00;;;;;;;4.23;3.20;;;13.10;99.90;;;;;;5038282;28;20430;-92
2021/09/29 06:15:30;;;;;;;8.30;3.63;;;;;;;;;;5031952;28;20475;-92
2021/09/29 06:17:58;;;;;;;3.83;3.00;;;;;;;;;;5001772;28;20552;-91
2021/09/29 06:20:26;;;;;;;5.53;3.53;;;;;;;;;;5008899;28;20876;-90
2021/09/29 06:22:54;;;;;;;3.53;3.23;;;;;;;;;;5010091;28;20452;-86
2021/09/29 06:25:25;;;;;;;3.67;3.37;;;13.70;99.90;;;;;;4999063;28;20457;-92
2021/09/29 06:27:53;;;;;;;8.03;4.13;;;;;;;;;;4997677;28;20484;-95
2021/09/29 06:30:22;;;;;;;8.20;3.30;;;;;;;;;;5012766;28;20506;-91
2021/09/29 06:32:49;;;;;;;3.53;2.90;;;;;;;;;;5016541;28;20455;-96
2021/09/29 06:35:17;;;;;;;5.50;3.40;;;;;;;;;;5016212;28;20480;-91
2021/09/29 06:37:44;;;;;;;4.83;2.70;;;;;;;;;;5017052;28;20472;-92
2021/09/29 06:40:13;;;;;;;5.63;2.40;;;14.30;99.90;;;;;;5015152;28;20523;-92
2021/09/29 06:42:40;;;;;;;3.50;2.80;;;;;;;;;;5014042;28;20444;-91
2021/09/29 06:45:09;;;;;;;3.03;2.73;;;14.40;99.90;;;;;;5013235;28;20444;-89
2021/09/29 06:47:39;;;;;;;4.37;3.10;;;14.40;99.90;;;;;;5016003;28;20476;-93
2021/09/29 06:50:07;;;;;;;2.90;2.70;;;14.10;99.90;;;;;;5012917;28;20843;-94
2021/09/29 06:52:35;;;;;;;5.53;2.97;;;;;;;;;;5006920;28;20956;-92
2021/09/29 06:55:02;;;;;;;3.63;2.87;;;;;;;;;;4995870;28;20462;-93
2021/09/29 06:57:29;;;;;;;3.10;2.50;;;;;;;;;;5001371;28;20461;-90
2021/09/29 06:59:56;;;;;;;4.50;2.80;;;;;;;;;;4997131;28;20528;-91
2021/09/29 07:02:23;;;;;;;6.93;2.60;;;;;;;;;;5021532;28;20543;-90
2021/09/29 07:04:52;;;;;;;4.73;2.67;;;;;;;;;;5021348;28;20803;-91
2021/09/29 07:07:19;;;;;;;4.70;3.03;;;;;;;;;;5011217;28;20473;-90
2021/09/29 07:09:46;;;;;;;2.87;2.20;;;;;;;;;;4996209;28;20446;-91
2021/09/29 07:12:13;;;;;;;2.30;2.10;;;;;;;;;;4996205;28;20454;-90
2021/09/29 07:14:43;;;;;;;3.13;2.33;;;15.00;99.90;;;;;;5010681;28;20476;-93
2021/09/29 07:17:10;;;;;;;5.30;2.60;;;;;;;;;;5011244;28;20472;-91
2021/09/29 07:19:39;;;;;;;3.10;2.23;;;;;;;;;;5014653;28;20454;-93
2021/09/29 07:22:07;;;;;;;3.83;2.50;;;15.80;99.90;;;;;;5013494;28;20453;-92
2021/09/29 07:24:34;;;;;;;1.53;1.23;;;;;;;;;;5011333;28;20464;-89
2021/09/29 07:27:02;;;;;;;3.47;2.10;;;;;;;;;;5015491;28;20480;-92
2021/09/29 07:29:29;;;;;;;4.03;2.17;;;;;;;;;;5012121;28;20448;-91
2021/09/29 07:31:56;;;;;;;2.80;1.80;;;;;;;;;;5015714;28;20967;-90
2021/09/29 07:34:24;;;;;;;2.10;1.90;;;;;;;;;;5011612;28;20448;-90
2021/09/29 07:36:51;;;;;;;4.20;1.77;;;;;;;;;;5015342;28;20534;-91
2021/09/29 07:39:20;;;;;;;7.43;2.60;;;14.50;99.90;;;;;;5012534;28;20479;-91
2021/09/29 07:41:47;;;;;;;2.57;1.50;;;;;;;;;;5013802;28;20455;-90
2021/09/29 07:44:14;;;;;;;3.13;1.40;;;;;;;;;;5012066;28;20452;-90
2021/09/29 07:46:42;;;;;;;3.33;1.73;;;;;;;;;;5003293;28;20458;-91
2021/09/29 07:49:11;;;;;;;1.90;1.17;;;;;;;;;;4995383;28;20859;-91
2021/09/29 07:51:38;;;;;;;2.37;1.20;;;;;;;;;;4999265;28;20454;-88
2021/09/29 07:54:05;;;;;;;2.93;1.90;;;;;;;;;;4995928;28;20457;-92
2021/09/29 07:56:35;;;;;;;1.73;1.20;;;;;;;;;;5011767;28;20967;-94
2021/09/29 07:59:02;;;;;;;2.90;1.70;;;;;;;;;;4999912;28;20454;-91
2021/09/29 08:01:29;;;;;;;1.87;1.30;;;;;;;;;;4996297;28;20465;-94
2021/09/29 08:04:02;;;;;;;5.23;1.80;;;16.90;99.90;;;;;;4994707;28;20446;-91
2021/09/29 08:06:29;;;;;;;2.63;1.53;;;;;;;;;;4995991;28;21076;-92
2021/09/29 08:08:56;;;;;;;3.63;1.40;;;;;;;;;;5012331;28;20491;-93
2021/09/29 08:11:24;;;;;;;2.40;1.30;;;;;;;;;;5014898;28;20812;-90
2021/09/29 08:13:52;;;;;;;2.27;1.10;;;;;;;;;;5015173;28;20561;-91
2021/09/29 08:16:19;;;;;;;3.30;1.30;;;;;;;;;;5003824;28;20478;-92
2021/09/29 08:18:46;;;;;;;1.17;1.07;;;;;;;;;;5001891;28;20451;-91
2021/09/29 08:21:16;;;;;;;1.70;1.00;;;;;;;;;;5011231;28;20453;-91
2021/09/29 08:23:47;;;;;;;2.13;1.10;;;;;;;;;;4995522;28;20486;-92
2021/09/29 08:29:18;;;;;;;6.63;2.00;;;;;;;;;;5026060;22;21529;-90
2021/09/29 08:32:03;;;;;;;1.57;0.90;;;;;;;;;;5001850;28;20831;-89
2021/09/29 08:34:36;;;;;;;1.97;1.40;;;;;;;;;;4999295;28;20953;-88
2021/09/29 08:37:07;;;;;;;2.90;1.30;;;;;;;;;;4995421;28;20493;-89
2021/09/29 08:39:37;;;;;;;1.83;1.10;;;;;;;;;;4994279;28;20832;-90
2021/09/29 08:42:22;;;;;;;2.23;1.00;;;;;;;;;;4991543;28;20536;-90
2021/09/29 08:44:53;;;;;;;3.40;1.43;;;19.10;99.90;;;;;;4992124;28;20807;-91
2021/09/29 08:47:26;;;;;;;1.70;1.00;;;18.60;99.90;;;;;;4977805;28;20470;-90
2021/09/29 08:50:08;;;;;;;2.43;1.10;;;;;;;;;;4988697;28;20473;-92
2021/09/29 08:52:57;;;;;;;2.30;1.20;;;18.60;99.90;;;;;;4990278;28;20433;-92
2021/09/29 08:56:03;;;;;;;2.93;0.97;;;;;;;;;;4992435;28;20520;-89
2021/09/29 09:15:33;;;;;;;3.20;1.50;;;;;;;;;;4993941;28;20507;-93
2021/09/29 09:18:06;;;;;;;1.43;1.00;;;;;;;;;;4994632;28;20464;-93
2021/09/29 09:20:36;;;;;;;1.77;1.00;;;;;;;;;;4994113;28;20520;-92
2021/09/29 09:23:10;;;;;;;1.50;0.73;;;;;;;;;;5011724;28;20465;-91
2021/09/29 09:25:40;;;;;;;1.70;0.80;;;18.10;99.90;;;;;;5003590;28;20441;-93
2021/09/29 09:28:09;;;;;;;6.43;0.90;;;;;;;;;;4995258;28;20488;-92
2021/09/29 09:30:38;;;;;;;2.50;1.30;;;17.20;99.90;;;;;;4994864;28;20481;-93
2021/09/29 09:33:07;;;;;;;2.43;1.10;;;17.50;99.90;;;;;;4990922;28;20449;-91
2021/09/29 09:35:45;;;;;;;1.47;0.87;;;17.50;99.90;;;;;;4992355;28;20558;-93
2021/09/29 09:38:17;;;;;;;2.33;1.20;;;17.40;99.90;;;;;;4931300;29;20470;-91
2021/09/29 09:40:44;;;;;;;1.93;1.20;;;;;;;;;;4936585;29;21010;-92
2021/09/29 09:43:12;;;;;;;1.10;0.60;;;;;;;;;;4897318;29;20461;-91
2021/09/29 09:45:51;;;;;;;4.37;1.30;;;16.90;99.90;;;;;;4879271;29;20455;-91
2021/09/29 09:48:22;;;;;;;1.97;1.00;;;16.80;99.90;;;;;;4886122;29;22049;-89
2021/09/29 09:50:53;;;;;;;1.47;0.90;;;;;;;;;;4856520;29;20523;-90
2021/09/29 09:53:20;;;;;;;1.80;1.10;;;;;;;;;;4877957;29;21077;-91
2021/09/29 09:55:47;;;;;;;4.70;1.27;;;;;;;;;;4887876;29;20516;-91
2021/09/29 09:58:14;;;;;;;8.10;1.57;;;;;;;;;;4932019;29;20458;-91
2021/09/29 10:00:41;;;;;;;2.77;1.00;;;;;;;;;;4936787;28;20523;-93
2021/09/29 10:03:11;;;;;;;0.60;0.50;;;17.90;99.90;;;;;;4975637;28;20430;-93
2021/09/29 10:05:42;;;;;;;1.50;0.57;;;17.70;99.90;;;;;;4974062;28;20954;-92
2021/09/29 10:08:11;;;;;;;2.30;0.90;;;;;;;;;;4972530;28;20585;-90
2021/09/29 10:10:47;;;;;;;2.83;1.10;;;;;;;;;;4983478;28;20458;-93
2021/09/29 10:27:56;;;;;;;1.87;0.80;;;18.10;99.90;;;;;;5001651;28;20471;-95
2021/09/29 10:30:31;;;;;;;0.60;0.50;;;17.70;99.90;;;;;;4978919;28;20492;-92
2021/09/29 10:33:00;;;;;;;1.73;0.90;;;;;;;;;;4977937;28;20442;-92
2021/09/29 10:43:59;;;;;;;2.17;0.70;;;16.80;99.90;;;;;;4979014;28;20442;-90
2021/09/29 10:46:33;;;;;;;3.90;1.23;;;;;;;;;;4980704;28;20462;-90
2021/09/29 11:03:31;;;;;;;1.43;0.90;;;17.20;99.90;;;;;;4980204;28;20468;-91
2021/09/29 11:06:29;;;;;;;4.27;0.73;;;;;;;;;;4979724;28;20458;-92
2021/09/29 11:11:58;;;;;;;1.63;0.77;;;17.30;99.90;;;;;;4981325;28;20497;-91
2021/09/29 11:28:48;;;;;;;1.07;0.70;;;19.00;99.90;;;;;;4977459;28;20520;-88
2021/09/29 11:31:18;;;;;;;1.00;0.60;;;;;;;;;;4980076;28;20873;-92
2021/09/29 11:33:50;;;;;;;3.33;1.53;;;;;;;;;;4978853;28;20442;-92
2021/09/29 11:36:28;;;;;;;2.30;0.60;;;18.80;99.20;;;;;;4977687;28;20496;-90
2021/09/29 12:10:10;;;;;;;1.57;0.70;;;18.50;99.30;;;;;;5135050;28;20788;-94
2021/09/29 12:12:42;;;;;;;2.07;0.80;;;;;;;;;;5133415;28;20479;-94
2021/09/29 12:15:11;;;;;;;2.50;0.80;;;19.50;98.00;;;;;;5133972;28;20571;-92
2021/09/29 12:17:40;;;;;;;2.53;0.73;;;19.30;99.00;;;;;;5134590;28;20435;-90
2021/09/29 12:20:12;;;;;;;4.37;0.80;;;19.50;98.60;;;;;;5133766;28;20447;-90
2021/09/29 12:22:42;;;;;;;1.30;0.50;;;19.00;98.80;;;;;;5143710;28;20446;-90
2021/09/29 12:25:14;;;;;;;1.80;0.50;;;19.00;98.90;;;;;;5143270;28;20455;-91
2021/09/29 12:27:48;;;;;;;1.03;0.43;;;;;;;;;;5147786;28;20447;-93
2021/09/29 12:30:19;;;;;;;0.50;0.30;;;19.50;97.90;;;;;;5140497;28;20471;-92
2021/09/29 12:33:03;;;;;;;0.70;0.40;;;19.70;97.70;;;;;;5138253;27;20482;-92
2021/09/29 12:35:39;;;;;;;1.27;0.53;;;;;;;;;;5134672;28;20491;-92
2021/09/29 12:38:09;;;;;;;1.73;0.60;;;;;;;;;;5133355;27;20450;-91
2021/09/29 12:40:39;;;;;;;2.70;0.77;;;19.00;99.10;;;;;;5133886;27;20459;-94
2021/09/29 12:43:09;;;;;;;3.07;0.60;;;19.90;99.10;;;;;;5124724;28;20472;-95
2021/09/29 12:45:38;;;;;;;1.97;0.67;;;19.70;97.80;;;;;;5129738;28;20432;-93
2021/09/29 12:48:08;;;;;;;1.60;0.40;;;19.30;98.70;;;;;;5131497;28;20455;-94
2021/09/29 12:50:41;;;;;;;1.20;0.50;;;;;;;;;;5131303;28;20899;-91
2021/09/29 12:53:18;;;;;;;1.90;1.00;;;;;;;;;;5134109;27;20911;-93
2021/09/29 12:55:50;;;;;;;9.63;0.80;;;18.00;99.90;;;;;;5132265;28;20455;-92
2021/09/29 12:58:21;;;;;;;2.33;0.70;;;;;;;;;;5130836;27;20435;-93
2021/09/29 13:00:50;;;;;;;0.63;0.33;;;18.20;99.90;;;;;;5136465;27;20448;-94
2021/09/29 13:03:18;;;;;;;1.53;0.83;;;;;;;;;;5122720;28;20518;-91
2021/09/29 13:05:47;;;;;;;1.90;0.73;;;;;;;;;;5118743;28;20444;-94
2021/09/29 13:08:14;;;;;;;0.73;0.47;;;;;;;;;;5119930;28;20444;-95
2021/09/29 13:10:42;;;;;;;2.93;0.93;;;;;;;;;;5122110;27;20451;-95
2021/09/29 13:13:11;;;;;;;1.50;0.67;;;;;;;;;;5123299;28;20491;-94
2021/09/29 13:15:43;;;;;;;3.23;0.73;;;19.00;99.90;;;;;;5124224;28;20448;-94
2021/09/29 13:18:14;;;;;;;4.60;1.30;;;18.40;99.90;;;;;;5128221;28;20447;-94
2021/09/29 13:20:51;;;;;;;1.73;0.80;;;18.20;99.90;;;;;;5126178;28;20539;-94
2021/09/29 13:23:24;;;;;;;5.23;0.90;;;;;;;;;;5121364;28;20458;-94
2021/09/29 13:36:48;;;;;;;4.10;0.97;;;;;;;;;;5105488;28;20424;-90
2021/09/29 13:39:16;;;;;;;1.40;1.00;;;15.20;99.90;;;;;;5097349;28;20439;-90
2021/09/29 13:41:44;;;;;;;1.83;1.00;;;14.90;99.90;;;;;;5096286;28;20457;-89
2021/09/29 13:44:13;;;;;;;2.40;1.13;;;14.80;99.90;;;;;;5096039;28;20445;-89
2021/09/29 13:46:41;;;;;;;1.00;0.80;;;14.60;99.90;;;;;;5093413;28;20456;-88
2021/09/29 13:49:09;;;;;;;2.93;1.43;;;;;;;;;;5109021;28;20443;-87
2021/09/29 13:51:36;;;;;;;4.73;1.50;;;;;;;;;;5116409;27;20492;-92
2021/09/29 13:54:08;;;;;;;2.20;1.13;;;14.90;99.90;;;;;;5123536;28;20455;-91
2021/09/29 13:56:43;;;;;;;6.40;1.60;;;;;;;;;;5119957;28;20464;-90
2021/09/29 14:29:29;;;;;;;1.13;0.60;;;;;;;;;;5116829;28;20506;-92
2021/09/29 14:32:06;;;;;;;0.80;0.60;;;14.30;99.90;;;;;;5103431;28;20564;-90
2021/09/29 14:34:33;;;;;;;2.70;1.20;;;;;;;;;;5093851;28;20818;-89
2021/09/29 14:37:02;;;;;;;1.80;0.70;;;;;;;;;;5096098;28;20433;-94
2021/09/29 14:39:30;;;;;;;1.00;0.80;;;;;;;;;;5095521;28;20440;-92
2021/09/29 14:41:57;;;;;;;1.17;0.50;;;;;;;;;;5095964;28;20453;-93
2021/09/29 14:44:25;;;;;;;0.70;0.40;;;;;;;;;;5105075;28;20989;-92
2021/09/29 14:46:52;;;;;;;1.93;0.87;;;;;;;;;;5104901;28;20480;-89
2021/09/29 14:49:23;;;;;;;1.07;0.63;;;;;;;;;;5096935;28;20959;-92
2021/09/29 14:51:51;;;;;;;1.83;0.73;;;;;;;;;;5095960;28;20567;-95
2021/09/29 14:54:18;;;;;;;0.70;0.57;;;;;;;;;;5096820;28;20463;-92
2021/09/29 14:56:46;;;;;;;2.17;0.63;;;;;;;;;;5094782;28;20469;-91
2021/09/29 14:59:13;;;;;;;3.47;1.07;;;;;;;;;;5093471;28;20457;-89
2021/09/29 15:01:41;;;;;;;1.90;0.67;;;;;;;;;;5094785;28;20962;-90
2021/09/29 15:04:08;;;;;;;0.50;0.47;;;;;;;;;;5093772;28;20444;-88
2021/09/29 15:06:38;;;;;;;0.80;0.30;;;12.60;99.90;;;;;;5094926;28;20809;-92
2021/09/29 15:09:05;;;;;;;0.60;0.40;;;;;;;;;;5093609;28;20461;-92
2021/09/29 15:11:32;;;;;;;1.37;0.40;;;;;;;;;;5094664;28;20437;-91
2021/09/29 15:14:07;;;;;;;0.80;0.50;;;;;;;;;;5094250;28;20963;-92
2021/09/29 15:16:40;;;;;;;1.80;0.43;;;;;;;;;;5092331;28;20505;-90
2021/09/29 15:19:24;;;;;;;1.03;0.40;;;;;;;;;;5093617;28;20445;-90
2021/09/29 15:22:01;;;;;;;0.80;0.60;;;12.60;99.90;;;;;;5094771;28;20445;-90
2021/09/29 15:46:59;;;;;;;2.00;0.53;;;12.50;99.90;;;;;;5094073;28;20416;-90
2021/09/29 15:49:38;;;;;;;0.93;0.43;;;;;;;;;;5093061;28;20452;-90
2021/09/29 15:52:16;;;;;;;1.47;0.50;;;12.70;99.90;;;;;;5093758;28;20520;-90
2021/09/29 15:54:54;;;;;;;0.50;0.40;;;13.10;99.90;;;;;;5092518;28;20440;-89
2021/09/29 15:57:36;;;;;;;2.10;0.57;;;;;;;;;;5099228;28;20444;-92
2021/09/29 16:00:29;;;;;;;0.47;0.30;;;;;;;;;;5114050;28;20501;-92
2021/09/29 16:03:02;;;;;;;0.80;0.60;;;;;;;;;;5114309;28;20440;-90
2021/09/29 16:05:39;;;;;;;0.70;0.40;;;;;;;;;;5113640;28;20531;-90
2021/09/29 16:08:18;;;;;;;1.37;0.60;;;;;;;;;;5114283;28;20451;-90
2021/09/29 16:13:50;;;;;;;0.60;0.40;;;;;;;;;;5102587;28;20891;-92
2021/09/29 16:16:25;;;;;;;0.70;0.43;;;;;;;;;;5114280;28;20914;-93
2021/09/29 16:32:52;;;;;;;1.10;0.43;;;;;;;;;;5113884;28;20482;-91
2021/09/29 16:35:26;;;;;;;0.50;0.30;;;;;;;;;;5113211;28;20455;-92
2021/09/29 16:37:54;;;;;;;0.80;0.40;;;;;;;;;;5113951;28;20443;-90
2021/09/29 16:40:21;;;;;;;2.30;1.03;;;;;;;;;;5117005;28;20444;-91
2021/09/29 16:42:54;;;;;;;2.17;1.00;;;12.10;99.90;;;;;;5117262;28;20451;-89
2021/09/29 16:45:24;;;;;;;3.67;0.50;;;;;;;;;;5115112;28;20456;-93
2021/09/29 16:47:52;;;;;;;1.33;0.50;;;;;;;;;;5117747;28;20443;-88
2021/09/29 16:50:23;;;;;;;3.27;0.60;;;;;;;;;;5116436;28;20447;-90
2021/09/29 16:52:54;;;;;;;0.70;0.50;;;;;;;;;;5119267;28;20498;-88
2021/09/29 16:55:27;;;;;;;2.40;0.60;;;;;;;;;;5129759;28;20484;-89
2021/09/29 16:58:07;;;;;;;1.83;0.60;;;12.30;99.90;;;;;;5117635;28;20510;-91
2021/09/29 17:00:45;;;;;;;1.23;0.80;;;;;;;;;;5116841;28;20508;-91
2021/09/29 17:03:12;;;;;;;2.17;0.60;;;;;;;;;;5116921;28;20448;-91
2021/09/29 17:05:39;;;;;;;0.60;0.50;;;;;;;;;;5116279;28;20440;-91
2021/09/29 17:08:07;;;;;;;2.03;0.70;;;;;;;;;;5116872;28;20435;-90
2021/09/29 17:10:34;;;;;;;2.37;0.90;;;;;;;;;;5116503;28;20446;-90
2021/09/29 17:13:03;;;;;;;1.50;0.60;;;12.00;99.90;;;;;;5116408;28;20998;-90
2021/09/29 17:15:30;;;;;;;1.67;0.70;;;;;;;;;;5116156;28;20845;-92
2021/09/29 17:17:57;;;;;;;1.60;0.77;;;;;;;;;;5116923;28;20795;-90
2021/09/29 17:20:24;;;;;;;0.97;0.73;;;;;;;;;;5115760;28;20451;-89
2021/09/29 17:22:57;;;;;;;1.33;0.70;;;;;;;;;;5116559;28;20895;-90
2021/09/29 17:25:24;;;;;;;1.40;0.60;;;;;;;;;;5116260;28;20471;-90
2021/09/29 17:27:51;;;;;;;1.90;0.70;;;;;;;;;;5115851;28;20459;-91
2021/09/29 17:30:24;;;;;;;7.40;4.60;;;12.00;99.90;;;;;;5115983;28;20440;-91
2021/09/29 17:33:11;;;;;;;6.00;4.03;;;;;;;;;;5115919;28;20503;-90
2021/09/29 17:35:47;;;;;;;3.53;2.40;;;;;;;;;;5115969;28;20447;-92
2021/09/29 17:52:20;;;;;;;0.70;0.60;;;;;;;;;;5116033;28;20485;-92